Fairhope, Ohio
Current Conditions -  °F | °C
As of 6:51 PM on Friday 24 Oct 2014 (Local Time) from KCAK Reporting Station
Few Clouds Few Clouds  
Wind Chill: 56°   Ceiling: Unl
Heat Index: 56°   Visibility: 10mi
Dew Point: 39°   Wind: 3mph
Humidity: 53%   Direction: 210°SSW
Pressure: 30"   Gusts: NA
Location:  40.8665°N, 81.2396°W
Report Text: KCAK 242251Z 21003KT 10SM FEW200 13/04 A3000 RMK AO2 SLP165 T01330039
Loading
Personal Weather Stations






























Interactive Weather Map
Tropical Storm Tracking
New forecast layout! Learn more

10-Day Weather Forecast

Advertisements
Track Severe Weather on mobile